Time;durP1;ratioP1;P1;durP2;ratioP2;P2;SDS_P1;SDS_P2;PMS_P1;PMS_P2;Temp;Humidity;BMP_temperature;BMP_pressure;BME280_temperature;BME280_humidity;BME280_pressure;Samples;Min_cycle;Max_cycle;Signal;HPM_P1;HPM_P2
2024/04/07 00:00:52;;;;;;;0.90;0.90;;;;;;;18.84;75.19;99503.34;5097816;28;20208;-67
2024/04/07 00:03:17;;;;;;;1.00;1.00;;;;;;;18.73;75.24;99500.59;5110966;28;20732;-67
2024/04/07 00:05:45;;;;;;;0.80;0.80;;;;;;;18.65;75.21;99470.81;5104223;28;20218;-67
2024/04/07 00:08:10;;;;;;;1.00;1.00;;;;;;;18.77;75.64;99485.66;5095279;28;20200;-67
2024/04/07 00:10:38;;;;;;;0.70;0.70;;;;;;;18.85;76.05;99481.66;5110715;28;20290;-66
2024/04/07 00:13:05;;;;;;;0.70;0.70;;;;;;;18.91;75.84;99487.38;5102092;28;20204;-67
2024/04/07 00:15:32;;;;;;;0.63;0.63;;;;;;;18.90;75.60;99485.75;5090354;28;20194;-67
2024/04/07 00:17:57;;;;;;;0.80;0.80;;;;;;;18.82;75.64;99494.00;5091644;28;20236;-67
2024/04/07 00:20:24;;;;;;;0.60;0.60;;;;;;;18.77;77.28;99499.47;5104391;28;20667;-67
2024/04/07 00:22:50;;;;;;;1.20;1.20;;;;;;;18.79;77.81;99484.63;5110169;28;20276;-67
2024/04/07 00:25:17;;;;;;;1.07;1.07;;;;;;;18.86;78.15;99488.53;5106969;28;20649;-67
2024/04/07 00:27:43;;;;;;;1.07;0.80;;;;;;;18.81;78.84;99493.16;5096643;28;20204;-67
2024/04/07 00:30:11;;;;;;;0.97;0.97;;;;;;;18.83;79.16;99491.31;5099193;28;20200;-67
2024/04/07 00:32:37;;;;;;;1.13;1.13;;;;;;;18.86;79.65;99482.50;5097175;28;20224;-67
2024/04/07 00:35:05;;;;;;;0.80;0.80;;;;;;;18.76;81.57;99504.78;5101362;28;20721;-67
2024/04/07 00:37:31;;;;;;;1.00;1.00;;;;;;;18.20;85.33;99513.34;5104774;28;20286;-67
2024/04/07 00:39:57;;;;;;;1.10;1.10;;;;;;;17.64;89.17;99520.09;5099965;28;20730;-67
2024/04/07 00:42:24;;;;;;;1.00;1.00;;;;;;;17.49;89.69;99489.81;5098171;28;20256;-67
2024/04/07 00:44:51;;;;;;;5.63;1.30;;;;;;;17.59;91.19;99509.16;5108769;28;20229;-67
2024/04/07 00:47:18;;;;;;;1.43;1.37;;;;;;;17.34;93.45;99508.84;5096923;28;20271;-67
2024/04/07 00:49:47;;;;;;;3.07;1.20;;;;;;;17.12;95.47;99516.13;5102341;28;20226;-68
2024/04/07 00:52:14;;;;;;;2.10;2.00;;;;;;;16.98;96.80;99510.84;5109497;28;20552;-67
2024/04/07 00:54:41;;;;;;;1.70;1.37;;;;;;;16.88;98.31;99509.69;5098983;28;20217;-67
2024/04/07 00:57:09;;;;;;;1.67;1.67;;;;;;;16.90;99.05;99519.03;5101964;28;20263;-67
2024/04/07 00:59:37;;;;;;;1.07;1.07;;;;;;;16.91;99.87;99519.88;5101366;28;20215;-67
2024/04/07 01:02:03;;;;;;;1.67;1.67;;;;;;;16.77;100.00;99526.63;5095870;28;20203;-67
2024/04/07 01:04:32;;;;;;;1.93;1.73;;;;;;;16.69;100.00;99518.44;5100374;28;20654;-67
2024/04/07 01:06:57;;;;;;;3.00;1.70;;;;;;;16.77;100.00;99518.03;5099377;28;20214;-66
2024/04/07 01:09:26;;;;;;;2.17;1.37;;;;;;;16.72;100.00;99520.88;5098684;28;20244;-67
2024/04/07 01:11:52;;;;;;;1.30;1.30;;;;;;;16.75;100.00;99520.72;5111517;28;20280;-67
2024/04/07 01:14:19;;;;;;;1.00;1.00;;;;;;;16.73;100.00;99522.56;5103915;28;20191;-67
2024/04/07 01:16:44;;;;;;;0.87;0.87;;;;;;;16.62;100.00;99519.69;5099443;28;20697;-67
2024/04/07 01:19:11;;;;;;;0.80;0.80;;;;;;;16.60;100.00;99525.88;5103484;28;20199;-67
2024/04/07 01:21:38;;;;;;;1.07;1.07;;;;;;;16.65;100.00;99529.88;5107779;28;20658;-67
2024/04/07 01:24:07;;;;;;;1.03;0.80;;;;;;;16.59;100.00;99530.19;5094358;28;20650;-67
2024/04/07 01:26:32;;;;;;;1.17;1.17;;;;;;;16.50;100.00;99530.66;5100063;28;20222;-67
2024/04/07 01:28:59;;;;;;;0.70;0.70;;;;;;;16.50;100.00;99533.25;5099251;28;20207;-68
2024/04/07 01:31:26;;;;;;;1.00;1.00;;;;;;;16.30;100.00;99517.91;5111357;28;20585;-67
2024/04/07 01:33:53;;;;;;;0.67;0.67;;;;;;;16.37;100.00;99533.94;5101587;28;20227;-67
2024/04/07 01:36:19;;;;;;;0.90;0.90;;;;;;;16.27;100.00;99525.81;5103862;28;20666;-66
2024/04/07 01:38:46;;;;;;;1.47;0.87;;;;;;;16.23;100.00;99545.00;5094274;28;20223;-67
2024/04/07 01:41:13;;;;;;;1.13;1.13;;;;;;;16.19;100.00;99551.22;5100070;28;20207;-67
2024/04/07 01:43:40;;;;;;;2.10;0.97;;;;;;;16.27;100.00;99549.09;5101408;27;20203;-67
2024/04/07 01:46:06;;;;;;;0.80;0.80;;;;;;;16.17;100.00;99553.91;5107990;28;20223;-67
2024/04/07 01:48:33;;;;;;;1.13;1.03;;;;;;;15.95;100.00;99547.31;5101439;28;20959;-67
2024/04/07 01:50:58;;;;;;;1.00;1.00;;;;;;;15.89;100.00;99540.69;5100717;28;20211;-67
2024/04/07 01:53:25;;;;;;;1.10;1.10;;;;;;;15.73;100.00;99548.34;5102023;28;20213;-67
2024/04/07 01:55:52;;;;;;;1.00;1.00;;;;;;;15.67;100.00;99542.66;5104839;28;20271;-67
2024/04/07 01:58:21;;;;;;;0.80;0.80;;;;;;;15.59;100.00;99550.78;5095447;28;20209;-66
2024/04/07 02:00:47;;;;;;;0.90;0.90;;;;;;;15.68;100.00;99571.00;5095578;28;20199;-66
2024/04/07 02:03:13;;;;;;;1.07;1.07;;;;;;;15.53;100.00;99568.31;5098827;28;20195;-67
2024/04/07 02:05:39;;;;;;;0.90;0.90;;;;;;;15.60;100.00;99567.97;5099202;28;20268;-67
2024/04/07 02:08:06;;;;;;;0.97;0.97;;;;;;;15.50;100.00;99565.88;5100255;28;20203;-67
2024/04/07 02:10:32;;;;;;;2.73;1.07;;;;;;;15.44;100.00;99567.00;5109885;28;20206;-67
2024/04/07 02:12:59;;;;;;;0.93;0.93;;;;;;;15.47;100.00;99592.69;5113270;28;20579;-67
2024/04/07 02:15:26;;;;;;;0.80;0.80;;;;;;;15.50;100.00;99577.06;5110848;28;20567;-67
2024/04/07 02:17:52;;;;;;;1.17;1.17;;;;;;;15.45;100.00;99562.63;5112068;28;20272;-67
2024/04/07 02:20:18;;;;;;;2.40;0.90;;;;;;;15.36;100.00;99553.56;5098555;28;20199;-67
2024/04/07 02:22:45;;;;;;;1.00;1.00;;;;;;;15.34;100.00;99570.91;5096270;28;20255;-67
2024/04/07 02:25:11;;;;;;;1.03;1.03;;;;;;;15.19;100.00;99558.69;5112479;28;20199;-68
2024/04/07 02:27:38;;;;;;;1.13;1.07;;;;;;;15.33;100.00;99569.22;5108914;28;20206;-67
2024/04/07 02:30:05;;;;;;;0.80;0.80;;;;;;;15.25;100.00;99572.16;5096039;28;20552;-67
2024/04/07 02:32:33;;;;;;;0.90;0.90;;;;;;;15.37;100.00;99594.00;5107448;28;20690;-67
2024/04/07 02:34:59;;;;;;;1.03;1.03;;;;;;;15.38;100.00;99593.09;5106307;28;20249;-67
2024/04/07 02:37:26;;;;;;;1.03;1.03;;;;;;;15.18;100.00;99578.53;5095611;28;20200;-67
2024/04/07 02:39:52;;;;;;;1.40;1.30;;;;;;;15.31;100.00;99619.28;5098970;28;20208;-67
2024/04/07 02:42:18;;;;;;;1.10;1.10;;;;;;;15.30;100.00;99615.88;5095495;28;20202;-67
2024/04/07 02:50:15;;;;;;;1.03;1.03;;;;;;;15.22;100.00;99617.94;5099977;28;20203;-67
2024/04/07 02:52:42;;;;;;;1.10;1.10;;;;;;;15.25;100.00;99628.97;5098437;28;20259;-66
2024/04/07 02:55:09;;;;;;;0.83;0.83;;;;;;;15.25;100.00;99597.13;5106167;28;20202;-66
2024/04/07 02:57:34;;;;;;;0.80;0.80;;;;;;;15.31;100.00;99612.38;5112027;28;20201;-67
2024/04/07 03:00:01;;;;;;;1.03;1.03;;;;;;;15.20;100.00;99609.44;5111869;28;20209;-67
2024/04/07 03:02:27;;;;;;;0.87;0.87;;;;;;;15.17;100.00;99588.91;5106277;28;20264;-67
2024/04/07 03:04:54;;;;;;;0.80;0.80;;;;;;;15.27;100.00;99602.25;5104600;28;20207;-66
2024/04/07 03:07:22;;;;;;;2.10;1.17;;;;;;;15.25;100.00;99608.31;5106595;28;20221;-67
2024/04/07 03:09:54;;;;;;;1.10;1.10;;;;;;;15.30;100.00;99605.53;5112085;28;20678;-66
2024/04/07 03:12:19;;;;;;;1.00;1.00;;;;;;;15.29;100.00;99588.34;5107258;28;20328;-67
2024/04/07 03:14:46;;;;;;;3.13;1.00;;;;;;;15.33;100.00;99607.13;5104487;28;20202;-67
2024/04/07 03:17:12;;;;;;;1.00;1.00;;;;;;;15.34;100.00;99609.66;5111588;28;20199;-67
2024/04/07 03:19:39;;;;;;;1.37;1.30;;;;;;;15.37;100.00;99608.66;5111761;28;20193;-67
2024/04/07 03:22:04;;;;;;;3.30;1.33;;;;;;;15.28;100.00;99609.09;5106031;28;20821;-66
2024/04/07 03:24:32;;;;;;;1.63;1.63;;;;;;;15.30;100.00;99610.69;5097627;28;20206;-67
2024/04/07 03:26:58;;;;;;;0.80;0.80;;;;;;;15.36;100.00;99610.41;5093594;28;20210;-67
2024/04/07 03:29:25;;;;;;;2.77;1.13;;;;;;;15.35;100.00;99616.47;5094729;28;20252;-67
2024/04/07 03:31:50;;;;;;;1.07;1.07;;;;;;;15.31;100.00;99612.38;5104344;28;20209;-66
2024/04/07 03:34:17;;;;;;;1.20;1.20;;;;;;;15.38;100.00;99621.50;5094110;28;20592;-67
2024/04/07 03:36:43;;;;;;;1.57;1.43;;;;;;;15.44;100.00;99616.06;5092486;28;20256;-67
2024/04/07 03:39:10;;;;;;;1.10;1.10;;;;;;;15.44;100.00;99618.66;5096314;28;20628;-67
2024/04/07 03:41:38;;;;;;;1.20;1.20;;;;;;;15.43;100.00;99616.13;5111379;28;20237;-67
2024/04/07 03:44:05;;;;;;;1.23;1.23;;;;;;;15.44;100.00;99622.97;5097689;27;20202;-67
2024/04/07 03:46:32;;;;;;;6.53;1.37;;;;;;;15.49;100.00;99616.72;5102965;28;20211;-67
2024/04/07 03:48:59;;;;;;;1.00;1.00;;;;;;;15.49;100.00;99621.88;5092807;28;20199;-66
2024/04/07 03:51:26;;;;;;;1.00;1.00;;;;;;;15.50;100.00;99620.97;5096006;28;20207;-67
2024/04/07 03:53:51;;;;;;;1.60;1.60;;;;;;;15.45;100.00;99620.31;5101208;28;20198;-67
2024/04/07 03:56:18;;;;;;;1.07;0.97;;;;;;;15.31;100.00;99604.63;5092961;28;20251;-67
2024/04/07 03:58:45;;;;;;;1.13;1.13;;;;;;;15.52;100.00;99626.06;5106847;28;20202;-67
2024/04/07 04:01:13;;;;;;;1.07;1.07;;;;;;;15.56;100.00;99643.94;5093926;28;20199;-67
2024/04/07 04:03:40;;;;;;;0.93;0.90;;;;;;;15.60;100.00;99626.56;5092901;28;20267;-67
2024/04/07 04:06:06;;;;;;;1.20;1.20;;;;;;;15.64;100.00;99621.16;5097903;28;20224;-67
2024/04/07 04:08:33;;;;;;;1.20;1.20;;;;;;;15.74;100.00;99622.41;5098172;28;20199;-66
2024/04/07 04:11:03;;;;;;;1.03;1.00;;;;;;;15.87;100.00;99626.97;5104193;28;20253;-67
2024/04/07 04:13:28;;;;;;;1.63;1.40;;;;;;;15.97;100.00;99630.78;5103931;28;20334;-67
2024/04/07 04:15:57;;;;;;;1.13;1.13;;;;;;;16.02;100.00;99631.44;5097536;28;20286;-67
2024/04/07 04:18:22;;;;;;;1.30;1.30;;;;;;;16.10;100.00;99634.47;5096967;28;20220;-66
2024/04/07 04:20:50;;;;;;;1.23;1.23;;;;;;;16.22;100.00;99639.03;5091746;28;20203;-67
2024/04/07 04:23:15;;;;;;;1.20;1.20;;;;;;;16.30;100.00;99642.09;5104451;28;20199;-67
2024/04/07 04:25:51;;;;;;;0.97;0.97;;;;;;;16.40;100.00;99648.47;5098249;28;20283;-67
2024/04/07 04:28:17;;;;;;;0.90;0.90;;;;;;;16.51;100.00;99646.19;5109013;28;20198;-67
2024/04/07 04:30:52;;;;;;;1.00;1.00;;;;;;;16.58;100.00;99647.56;5092616;28;20195;-66
2024/04/07 04:33:20;;;;;;;1.10;1.10;;;;;;;16.69;100.00;99645.28;5095557;28;20661;-67
2024/04/07 04:35:47;;;;;;;1.47;1.47;;;;;;;16.90;100.00;99663.25;5098400;28;20217;-67
2024/04/07 04:38:13;;;;;;;1.30;1.30;;;;;;;17.07;100.00;99660.59;5096828;28;20233;-67
2024/04/07 04:40:40;;;;;;;1.53;1.43;;;;;;;17.20;100.00;99667.63;5098067;28;20199;-67
2024/04/07 04:43:06;;;;;;;2.43;1.40;;;;;;;17.25;100.00;99670.00;5099212;28;20199;-67
2024/04/07 04:45:33;;;;;;;1.30;1.30;;;;;;;17.30;100.00;99662.81;5101488;28;20192;-67
2024/04/07 04:47:58;;;;;;;1.83;1.73;;;;;;;17.47;100.00;99667.94;5108907;28;20276;-67
2024/04/07 04:50:27;;;;;;;2.53;2.43;;;;;;;17.50;100.00;99670.34;5101374;27;20671;-67
2024/04/07 04:52:52;;;;;;;1.80;1.70;;;;;;;17.62;100.00;99685.28;5109482;28;20200;-67
2024/04/07 04:55:19;;;;;;;4.50;1.47;;;;;;;17.68;100.00;99684.94;5108372;28;20358;-67
2024/04/07 04:57:47;;;;;;;1.43;1.43;;;;;;;17.70;100.00;99695.22;5099445;28;20203;-66
2024/04/07 05:00:14;;;;;;;1.23;1.23;;;;;;;17.73;100.00;99682.94;5108851;28;20264;-67
2024/04/07 05:02:41;;;;;;;1.13;1.13;;;;;;;17.71;100.00;99694.28;5114525;28;20286;-68
2024/04/07 05:05:09;;;;;;;0.80;0.80;;;;;;;17.84;100.00;99701.31;5102436;28;20681;-67
2024/04/07 05:07:36;;;;;;;0.90;0.90;;;;;;;17.90;100.00;99704.53;5105895;28;20218;-67
2024/04/07 05:10:04;;;;;;;1.27;1.27;;;;;;;17.98;100.00;99703.16;5113480;28;20611;-67
2024/04/07 05:12:29;;;;;;;1.00;1.00;;;;;;;18.17;100.00;99703.81;5102729;28;20196;-67
2024/04/07 05:14:56;;;;;;;1.50;1.50;;;;;;;18.27;100.00;99710.16;5108963;28;20210;-67
2024/04/07 05:17:23;;;;;;;1.10;1.10;;;;;;;18.42;100.00;99705.84;5108785;28;20203;-67
2024/04/07 05:19:51;;;;;;;1.13;1.13;;;;;;;18.46;100.00;99704.75;5096253;28;20211;-67
2024/04/07 05:22:17;;;;;;;1.47;1.37;;;;;;;18.51;100.00;99723.53;5112907;28;20736;-67
2024/04/07 05:24:45;;;;;;;1.40;1.30;;;;;;;18.53;100.00;99720.84;5104378;28;20199;-68
2024/04/07 05:27:11;;;;;;;1.10;1.10;;;;;;;18.55;100.00;99719.81;5102134;28;20209;-67
2024/04/07 05:29:38;;;;;;;0.90;0.90;;;;;;;18.57;100.00;99718.00;5095297;28;20200;-67
2024/04/07 05:32:05;;;;;;;1.03;1.03;;;;;;;18.74;99.80;99715.22;5102978;28;20210;-67
2024/04/07 05:34:31;;;;;;;0.90;0.90;;;;;;;18.90;98.84;99720.38;5103034;28;20203;-67
2024/04/07 05:37:03;;;;;;;1.13;1.13;;;;;;;19.12;98.61;99705.19;5099566;28;20253;-67
2024/04/07 05:39:29;;;;;;;2.40;2.30;;;;;;;19.28;96.73;99724.13;5108874;28;20258;-67
2024/04/07 05:41:56;;;;;;;1.43;1.43;;;;;;;19.45;96.87;99715.28;5100682;28;20197;-67
2024/04/07 05:44:23;;;;;;;1.53;1.50;;;;;;;19.41;94.42;99726.84;5108092;28;20241;-67
2024/04/07 05:46:51;;;;;;;1.80;1.70;;;;;;;19.50;95.13;99731.47;5113146;28;20227;-68
2024/04/07 05:49:17;;;;;;;1.03;1.03;;;;;;;19.56;94.58;99727.66;5109767;28;20574;-66
2024/04/07 05:51:43;;;;;;;1.10;1.10;;;;;;;19.63;94.59;99727.19;5096997;28;20198;-67
2024/04/07 05:54:10;;;;;;;0.80;0.80;;;;;;;19.67;95.08;99728.66;5095763;28;20623;-67
2024/04/07 05:56:35;;;;;;;1.07;1.07;;;;;;;19.57;94.20;99730.16;5093558;28;20621;-70
2024/04/07 05:59:03;;;;;;;0.90;0.90;;;;;;;19.61;94.18;99728.22;5106550;28;20202;-67
2024/04/07 06:01:29;;;;;;;0.90;0.90;;;;;;;19.60;95.18;99729.97;5103229;28;20206;-67
2024/04/07 06:03:56;;;;;;;0.93;0.93;;;;;;;19.58;94.93;99728.41;5104541;28;20663;-67
2024/04/07 06:06:22;;;;;;;1.50;1.50;;;;;;;19.55;94.77;99734.59;5098822;28;20225;-67
2024/04/07 06:08:48;;;;;;;1.00;1.00;;;;;;;19.57;95.13;99737.13;5095047;28;20748;-67
2024/04/07 06:11:14;;;;;;;0.80;0.80;;;;;;;19.59;94.63;99743.91;5099501;28;20267;-66
2024/04/07 06:13:41;;;;;;;4.23;1.00;;;;;;;19.73;93.55;99746.50;5099835;28;20717;-67
2024/04/07 06:16:08;;;;;;;3.30;1.00;;;;;;;19.99;93.57;99741.44;5095078;28;20216;-67
2024/04/07 06:18:36;;;;;;;0.97;0.97;;;;;;;20.13;92.30;99741.41;5098315;28;20207;-67
2024/04/07 06:21:07;;;;;;;0.80;0.80;;;;;;;20.21;89.77;99744.31;5102363;28;20287;-67
2024/04/07 06:23:34;;;;;;;0.70;0.70;;;;;;;20.21;90.30;99731.31;5099859;28;20195;-67
2024/04/07 06:26:02;;;;;;;0.80;0.80;;;;;;;20.40;92.52;99747.44;5103244;28;20669;-67
2024/04/07 06:28:28;;;;;;;0.87;0.87;;;;;;;20.44;91.98;99746.31;5101877;28;20203;-66
2024/04/07 06:30:54;;;;;;;1.70;1.10;;;;;;;20.69;92.58;99750.75;5099492;28;20202;-67
2024/04/07 06:33:26;;;;;;;0.63;0.63;;;;;;;20.97;90.52;99753.19;5112288;28;20286;-67
2024/04/07 06:35:52;;;;;;;0.90;0.90;;;;;;;21.33;87.83;99747.28;5100885;28;20203;-67
2024/04/07 06:38:18;;;;;;;0.60;0.60;;;;;;;21.71;83.91;99762.91;5107798;28;20345;-71
2024/04/07 06:40:44;;;;;;;0.80;0.80;;;;;;;22.05;81.90;99767.41;5109771;28;20202;-65
2024/04/07 06:43:11;;;;;;;1.00;1.00;;;;;;;22.40;80.73;99764.88;5093060;28;20196;-67
2024/04/07 06:45:37;;;;;;;1.87;0.70;;;;;;;22.64;81.64;99770.94;5107826;28;20806;-73
2024/04/07 06:48:04;;;;;;;2.40;0.73;;;;;;;22.78;79.17;99768.13;5095829;28;20236;-67
2024/04/07 06:50:32;;;;;;;0.70;0.70;;;;;;;22.93;77.31;99768.78;5106788;28;20198;-66
2024/04/07 06:52:59;;;;;;;0.70;0.70;;;;;;;23.17;78.13;99773.94;5105862;28;20674;-66
2024/04/07 06:55:25;;;;;;;0.70;0.70;;;;;;;23.38;75.37;99781.00;5098521;27;20271;-66
2024/04/07 06:57:51;;;;;;;0.77;0.77;;;;;;;23.54;73.94;99778.06;5099910;28;20665;-66
2024/04/07 07:00:18;;;;;;;2.33;0.80;;;;;;;23.58;72.07;99783.88;5094999;28;20663;-67
2024/04/07 07:02:44;;;;;;;0.90;0.90;;;;;;;23.78;75.14;99780.56;5095343;28;20548;-66
2024/04/07 07:05:11;;;;;;;0.80;0.80;;;;;;;23.71;72.62;99780.19;5095938;28;20206;-66
2024/04/07 07:07:38;;;;;;;0.97;0.60;;;;;;;23.72;72.80;99770.53;5097388;28;20219;-66
2024/04/07 07:10:06;;;;;;;0.50;0.50;;;;;;;23.77;69.49;99779.72;5107605;28;20233;-68
2024/04/07 07:12:32;;;;;;;1.33;0.70;;;;;;;23.56;70.90;99781.38;5111859;28;20651;-66
2024/04/07 07:14:59;;;;;;;0.73;0.73;;;;;;;23.61;73.38;99778.41;5107297;28;20199;-66
2024/04/07 07:17:24;;;;;;;0.60;0.60;;;;;;;23.84;73.14;99775.66;5097637;28;20188;-66
2024/04/07 07:19:51;;;;;;;0.67;0.67;;;;;;;23.97;72.81;99776.34;5099164;28;20689;-66
2024/04/07 07:22:17;;;;;;;0.83;0.83;;;;;;;24.23;71.59;99778.72;5093096;28;20206;-65
2024/04/07 07:24:45;;;;;;;1.50;0.70;;;;;;;24.32;70.29;99770.94;5092799;28;20732;-66
2024/04/07 07:27:11;;;;;;;0.60;0.60;;;;;;;24.53;68.34;99784.06;5110087;28;20263;-66
2024/04/07 07:29:37;;;;;;;0.70;0.70;;;;;;;24.49;67.81;99780.06;5109559;28;20203;-66
2024/04/07 07:32:05;;;;;;;0.50;0.50;;;;;;;24.61;69.13;99771.19;5092989;28;20195;-66
2024/04/07 07:34:32;;;;;;;0.60;0.60;;;;;;;24.66;69.22;99774.25;5098214;28;20677;-66
2024/04/07 07:36:58;;;;;;;1.07;1.07;;;;;;;24.79;67.12;99774.06;5097128;28;20244;-65
2024/04/07 07:39:25;;;;;;;1.50;0.83;;;;;;;24.99;67.26;99779.38;5098725;28;20195;-66
2024/04/07 07:41:52;;;;;;;0.50;0.50;;;;;;;25.03;68.27;99772.06;5097134;28;20434;-66
2024/04/07 07:44:18;;;;;;;0.63;0.63;;;;;;;25.13;69.66;99787.88;5109789;28;20810;-66
2024/04/07 07:46:45;;;;;;;1.70;0.60;;;;;;;25.25;67.52;99786.84;5110818;28;20717;-66
2024/04/07 07:49:11;;;;;;;0.60;0.60;;;;;;;25.38;66.84;99776.97;5110854;28;20384;-66
2024/04/07 07:51:37;;;;;;;0.70;0.70;;;;;;;25.30;66.79;99768.91;5103239;28;20200;-66
2024/04/07 07:54:04;;;;;;;0.60;0.60;;;;;;;25.31;65.34;99781.06;5091438;28;20248;-66
2024/04/07 07:56:30;;;;;;;0.70;0.70;;;;;;;25.25;65.71;99776.34;5101684;28;20203;-66
2024/04/07 07:58:58;;;;;;;0.80;0.80;;;;;;;25.21;66.75;99780.16;5111072;28;20228;-64
2024/04/07 08:01:23;;;;;;;0.87;0.87;;;;;;;25.27;65.66;99780.47;5109692;28;20203;-65
2024/04/07 08:03:50;;;;;;;0.80;0.80;;;;;;;25.53;66.11;99786.16;5097153;28;20254;-65
2024/04/07 08:06:16;;;;;;;0.60;0.60;;;;;;;25.59;65.04;99780.38;5090799;28;20207;-65
2024/04/07 08:08:43;;;;;;;1.67;0.70;;;;;;;25.34;65.43;99779.00;5094530;28;20222;-65
2024/04/07 08:11:09;;;;;;;2.10;0.73;;;;;;;25.49;67.21;99774.25;5109465;28;20325;-65
2024/04/07 08:13:35;;;;;;;0.80;0.80;;;;;;;25.68;66.22;99784.03;5096126;28;20776;-65
2024/04/07 08:16:04;;;;;;;0.73;0.73;;;;;;;25.72;62.67;99781.00;5100562;28;20586;-65
2024/04/07 08:18:30;;;;;;;0.50;0.50;;;;;;;25.65;60.93;99774.63;5099023;28;20666;-65
2024/04/07 08:20:57;;;;;;;0.40;0.40;;;;;;;25.84;62.59;99774.69;5093355;28;20298;-65
2024/04/07 08:23:24;;;;;;;1.20;0.77;;;;;;;25.96;62.48;99773.63;5099560;28;20215;-65
2024/04/07 08:25:51;;;;;;;2.47;0.70;;;;;;;26.00;60.51;99775.00;5102393;28;20267;-65
2024/04/07 08:28:17;;;;;;;0.80;0.80;;;;;;;26.09;61.26;99763.69;5093402;28;20226;-65
2024/04/07 08:30:43;;;;;;;0.73;0.73;;;;;;;26.53;60.55;99777.31;5102188;28;20202;-66
2024/04/07 08:33:10;;;;;;;0.80;0.80;;;;;;;26.51;60.15;99777.47;5108588;28;20222;-65
2024/04/07 08:35:38;;;;;;;0.67;0.67;;;;;;;26.55;59.49;99781.47;5092749;28;20195;-65
2024/04/07 08:38:04;;;;;;;0.40;0.40;;;;;;;26.25;56.86;99778.13;5093182;28;20191;-65
2024/04/07 08:40:31;;;;;;;0.77;0.77;;;;;;;26.14;55.38;99780.84;5092524;28;20204;-66
2024/04/07 08:42:57;;;;;;;0.57;0.57;;;;;;;26.27;53.59;99776.19;5097973;28;20199;-65
2024/04/07 08:45:25;;;;;;;0.67;0.67;;;;;;;26.11;53.30;99777.50;5098164;28;20214;-65
2024/04/07 08:47:52;;;;;;;0.90;0.90;;;;;;;25.89;53.81;99772.47;5101586;28;20226;-65
2024/04/07 08:50:22;;;;;;;0.90;0.90;;;;;;;25.60;53.14;99771.56;5100495;28;20283;-65
2024/04/07 08:52:48;;;;;;;0.80;0.80;;;;;;;26.01;54.97;99771.41;5096657;28;20255;-65
2024/04/07 08:55:15;;;;;;;6.80;5.60;;;;;;;25.70;51.83;99767.16;5100641;28;20199;-65
2024/04/07 08:57:43;;;;;;;1.87;1.77;;;;;;;25.71;53.71;99762.75;5110048;28;20194;-65
2024/04/07 09:00:14;;;;;;;0.77;0.77;;;;;;;25.51;53.20;99767.09;5095479;28;20210;-66
2024/04/07 09:02:41;;;;;;;0.90;0.90;;;;;;;25.58;53.26;99768.25;5094300;28;20253;-65
2024/04/07 09:05:08;;;;;;;1.00;1.00;;;;;;;25.82;54.24;99771.34;5110594;28;20658;-65
2024/04/07 09:07:36;;;;;;;0.50;0.50;;;;;;;25.90;52.06;99747.88;5099823;28;20211;-65
2024/04/07 09:10:03;;;;;;;0.50;0.50;;;;;;;25.94;51.07;99749.28;5098579;28;20194;-65
2024/04/07 09:12:30;;;;;;;1.40;0.63;;;;;;;26.07;50.97;99764.78;5108618;28;20224;-65
2024/04/07 09:14:57;;;;;;;0.43;0.43;;;;;;;26.39;51.26;99768.03;5093688;28;20199;-65
2024/04/07 09:17:22;;;;;;;0.40;0.40;;;;;;;26.47;49.19;99762.09;5091560;28;20200;-65
2024/04/07 09:19:49;;;;;;;0.60;0.60;;;;;;;26.43;48.22;99755.47;5105574;28;20279;-65
2024/04/07 09:22:15;;;;;;;0.40;0.40;;;;;;;26.68;49.57;99765.41;5104018;28;20203;-65
2024/04/07 09:24:43;;;;;;;0.40;0.40;;;;;;;26.66;49.25;99746.28;5099034;28;20617;-65
2024/04/07 09:27:10;;;;;;;0.57;0.57;;;;;;;26.77;48.81;99764.56;5107741;28;20687;-65
2024/04/07 09:29:39;;;;;;;0.60;0.60;;;;;;;26.60;47.86;99758.22;5103166;28;20202;-65
2024/04/07 09:32:06;;;;;;;0.57;0.57;;;;;;;26.38;49.41;99762.91;5113785;28;20632;-65
2024/04/07 09:34:35;;;;;;;0.43;0.43;;;;;;;25.97;50.10;99749.00;5104435;28;20663;-65
2024/04/07 09:37:01;;;;;;;0.50;0.50;;;;;;;26.22;52.26;99762.63;5103416;28;20611;-65
2024/04/07 09:39:28;;;;;;;2.13;0.50;;;;;;;26.36;49.51;99754.34;5097948;28;20198;-65
2024/04/07 09:41:58;;;;;;;0.70;0.70;;;;;;;26.15;50.57;99745.69;5104194;28;20264;-65
2024/04/07 09:44:28;;;;;;;0.77;0.77;;;;;;;25.92;50.36;99750.38;5111111;28;20755;-65
2024/04/07 09:47:01;;;;;;;0.60;0.60;;;;;;;25.42;51.46;99752.13;5113411;28;20264;-65
2024/04/07 09:49:33;;;;;;;1.90;0.97;;;;;;;24.92;52.09;99744.09;5100241;28;20199;-65
2024/04/07 09:52:03;;;;;;;5.87;0.73;;;;;;;24.92;51.83;99749.34;5113230;28;20263;-65
2024/04/07 09:54:39;;;;;;;0.43;0.43;;;;;;;24.68;52.26;99735.66;5107650;28;20667;-66
2024/04/07 09:57:08;;;;;;;0.53;0.53;;;;;;;24.54;52.08;99738.56;5098565;28;20719;-65
2024/04/07 09:59:36;;;;;;;0.50;0.50;;;;;;;24.81;52.60;99736.28;5095293;28;20298;-66
2024/04/07 10:02:03;;;;;;;0.60;0.60;;;;;;;25.06;51.75;99741.16;5100255;28;20203;-66
2024/04/07 10:04:30;;;;;;;0.70;0.70;;;;;;;25.36;51.82;99747.41;5104834;28;20593;-66
2024/04/07 10:06:59;;;;;;;0.60;0.60;;;;;;;25.13;52.10;99735.41;5102481;28;20214;-66
2024/04/07 10:09:26;;;;;;;0.50;0.50;;;;;;;25.08;51.80;99733.97;5112514;28;20190;-66
2024/04/07 10:11:52;;;;;;;0.47;0.47;;;;;;;24.37;50.14;99752.22;5096789;27;20440;-70
2024/04/07 10:14:20;;;;;;;0.50;0.50;;;;;;;24.04;54.83;99746.09;5108136;28;20514;-64
2024/04/07 10:16:49;;;;;;;0.80;0.80;;;;;;;23.89;54.16;99749.94;5100157;28;20256;-64
2024/04/07 10:19:17;;;;;;;0.70;0.70;;;;;;;23.82;54.35;99761.84;5112659;28;20684;-64
2024/04/07 10:21:43;;;;;;;0.50;0.50;;;;;;;23.42;57.59;99761.53;5101899;28;20297;-64
2024/04/07 10:27:23;;;;;;;0.60;0.60;;;;;;;23.33;57.35;99758.72;5110416;28;20218;-64
2024/04/07 10:29:54;;;;;;;0.97;0.70;;;;;;;23.56;62.98;99770.06;5110582;28;20268;-64
2024/04/07 10:32:27;;;;;;;0.50;0.50;;;;;;;23.70;63.12;99754.97;5090916;28;20322;-64
2024/04/07 10:34:59;;;;;;;0.77;0.77;;;;;;;23.99;64.42;99790.16;5104205;28;20230;-64
2024/04/07 10:37:26;;;;;;;1.20;1.20;;;;;;;23.67;69.68;99742.13;5098531;28;20191;-64
2024/04/07 10:39:52;;;;;;;3.40;0.73;;;;;;;23.68;70.23;99777.81;5103392;28;20235;-65
2024/04/07 10:42:19;;;;;;;0.50;0.50;;;;;;;23.11;62.64;99784.84;5103453;28;20748;-64
2024/04/07 10:44:45;;;;;;;0.67;0.67;;;;;;;22.57;70.12;99779.31;5105693;28;20739;-64
2024/04/07 10:47:14;;;;;;;3.30;0.60;;;;;;;21.87;80.67;99771.31;5111259;28;20286;-64
2024/04/07 10:49:40;;;;;;;0.43;0.43;;;;;;;20.97;78.35;99768.81;5107461;28;20273;-64
2024/04/07 10:52:14;;;;;;;0.80;0.80;;;;;;;21.32;76.93;99776.91;5091719;28;20207;-64
2024/04/07 10:54:39;;;;;;;1.17;0.70;;;;;;;21.42;76.43;99768.34;5111415;28;20255;-64
2024/04/07 10:57:10;;;;;;;0.70;0.70;;;;;;;21.41;78.08;99776.28;5095718;28;20199;-64
2024/04/07 10:59:36;;;;;;;0.97;0.70;;;;;;;21.41;77.47;99760.63;5110980;28;20251;-63
2024/04/07 11:02:03;;;;;;;0.90;0.90;;;;;;;21.69;80.51;99783.88;5111308;28;20194;-64
2024/04/07 11:04:32;;;;;;;1.13;0.80;;;;;;;21.54;84.23;99771.91;5111916;28;20233;-64
2024/04/07 11:06:59;;;;;;;0.80;0.80;;;;;;;21.56;95.07;99759.56;5111585;28;20692;-64
2024/04/07 11:09:25;;;;;;;0.70;0.70;;;;;;;21.66;98.09;99760.59;5096185;28;20243;-64
2024/04/07 11:11:54;;;;;;;0.90;0.90;;;;;;;21.77;94.60;99758.09;5091664;28;20702;-64
2024/04/07 11:14:23;;;;;;;0.80;0.80;;;;;;;21.76;83.34;99769.44;5091385;28;20290;-64
2024/04/07 11:16:52;;;;;;;1.00;0.90;;;;;;;21.68;87.70;99763.91;5091198;28;20206;-63
2024/04/07 11:19:19;;;;;;;0.70;0.70;;;;;;;21.83;89.70;99760.25;5102499;28;20269;-63
2024/04/07 11:21:48;;;;;;;0.60;0.60;;;;;;;22.06;88.67;99748.22;5091451;28;20203;-63
2024/04/07 11:24:14;;;;;;;0.90;0.90;;;;;;;22.24;86.28;99746.03;5091213;28;20213;-64
2024/04/07 11:26:40;;;;;;;0.60;0.60;;;;;;;22.49;84.25;99740.69;5091147;28;20241;-64
2024/04/07 11:29:07;;;;;;;0.60;0.60;;;;;;;22.67;82.41;99739.38;5091433;28;20211;-63
2024/04/07 11:31:33;;;;;;;0.70;0.70;;;;;;;22.79;81.33;99738.44;5106231;28;20194;-63
2024/04/07 11:34:00;;;;;;;2.20;0.67;;;;;;;23.01;79.76;99737.66;5100953;27;20326;-63
2024/04/07 11:36:27;;;;;;;2.63;0.87;;;;;;;23.19;81.30;99732.81;5106721;28;20654;-64